Terminal Aerodrome Forecast
Issued by NWS

Home | Current Version | Previous Version | Text Only | Print | Product List | Glossary On
Versions: 1 2 3 4 5 6 7 8 9 10 11 12 13 14 15 16 17 18
000
FTUS41 KCLE 262338
TAFFDY
TAF
KFDY 262338Z 2700/2724 21010KT P6SM BKN080
     FM270800 21008KT P6SM SCT080
     FM271400 23012G22KT P6SM SCT015
     FM271600 23015G25KT P6SM BKN040
     FM271800 25015G25KT P6SM BKN050
      TEMPO 2720/2723 3SM -TSRA OVC035CB=

USA.gov is the U.S. government's official web portal to all federal, state and local government web resources and services.